createdAt,value
2022-09-01T00:01:39.800Z,1.40
2022-09-01T00:04:08.875Z,1.48
2022-09-01T00:06:38.533Z,1.10
2022-09-01T00:09:12.333Z,1.48
2022-09-01T00:11:42.129Z,1.60
2022-09-01T00:14:24.809Z,1.42
2022-09-01T00:16:57.724Z,1.23
2022-09-01T00:19:24.783Z,1.38
2022-09-01T00:21:51.495Z,1.77
2022-09-01T00:24:19.203Z,1.38
2022-09-01T00:26:46.426Z,1.80
2022-09-01T00:29:13.763Z,1.45
2022-09-01T00:31:41.617Z,1.23
2022-09-01T00:34:08.373Z,1.40
2022-09-01T00:36:35.122Z,1.52
2022-09-01T00:39:02.705Z,2.25
2022-09-01T00:41:32.293Z,1.50
2022-09-01T00:44:13.416Z,2.70
2022-09-01T00:46:55.192Z,1.83
2022-09-01T00:49:47.083Z,1.73
2022-09-01T00:52:15.304Z,1.42
2022-09-01T00:54:52.193Z,1.40
2022-09-01T00:57:19.150Z,1.70
2022-09-01T01:00:01.869Z,1.77
2022-09-01T01:02:28.912Z,1.70
2022-09-01T01:04:59.388Z,1.50
2022-09-01T01:07:27.524Z,1.48
2022-09-01T01:09:54.486Z,1.73
2022-09-01T01:12:21.486Z,1.52
2022-09-01T01:14:50.890Z,1.55
2022-09-01T01:17:21.646Z,1.63
2022-09-01T01:20:16.053Z,2.20
2022-09-01T01:23:05.357Z,2.08
2022-09-01T01:25:46.213Z,1.13
2022-09-01T01:28:26.771Z,1.95
2022-09-01T01:31:01.861Z,1.85
2022-09-01T01:33:42.695Z,1.55
2022-09-01T01:36:19.257Z,1.65
2022-09-01T01:38:49.010Z,1.83
2022-09-01T01:41:21.949Z,2.10
2022-09-01T01:43:48.659Z,1.70
2022-09-01T01:46:19.110Z,2.30
2022-09-01T01:48:47.035Z,2.00
2022-09-01T01:51:13.889Z,2.05
2022-09-01T01:53:40.902Z,1.90
2022-09-01T01:56:08.966Z,1.92
2022-09-01T01:58:36.563Z,1.67
2022-09-01T02:01:12.590Z,1.77
2022-09-01T02:03:40.634Z,2.00
2022-09-01T02:06:11.992Z,1.98
2022-09-01T02:08:41.141Z,2.08
2022-09-01T02:11:08.392Z,1.70
2022-09-01T02:13:35.153Z,2.20
2022-09-01T02:16:12.705Z,1.80
2022-09-01T02:18:49.800Z,2.00
2022-09-01T02:21:21.060Z,1.75
2022-09-01T02:23:59.456Z,2.28
2022-09-01T02:26:39.517Z,2.15
2022-09-01T02:29:19.084Z,2.63
2022-09-01T02:31:49.337Z,2.13
2022-09-01T02:34:18.524Z,2.70
2022-09-01T02:36:52.341Z,1.70
2022-09-01T02:39:29.464Z,2.25
2022-09-01T02:41:56.625Z,2.20
2022-09-01T02:44:29.107Z,2.72
2022-09-01T02:46:56.614Z,1.98
2022-09-01T02:49:28.188Z,1.90
2022-09-01T02:51:59.490Z,2.38
2022-09-01T02:54:27.759Z,2.42
2022-09-01T02:56:54.855Z,2.38
2022-09-01T02:59:27.414Z,2.78
2022-09-01T03:01:57.586Z,2.40
2022-09-01T03:04:25.025Z,2.63
2022-09-01T03:06:54.694Z,2.20
2022-09-01T03:09:22.868Z,2.22
2022-09-01T03:11:52.751Z,1.92
2022-09-01T03:14:21.336Z,2.40
2022-09-01T03:16:48.333Z,2.22
2022-09-01T03:19:19.036Z,2.70
2022-09-01T03:21:46.746Z,2.40
2022-09-01T03:24:18.224Z,2.28
2022-09-01T03:26:49.915Z,2.08
2022-09-01T03:29:18.759Z,2.38
2022-09-01T03:31:48.896Z,2.30
2022-09-01T03:34:16.443Z,2.25
2022-09-01T03:36:50.804Z,2.20
2022-09-01T03:39:27.151Z,2.33
2022-09-01T03:41:56.338Z,2.50
2022-09-01T03:44:23.025Z,2.35
2022-09-01T03:46:50.579Z,1.75
2022-09-01T03:49:24.829Z,1.95
2022-09-01T03:51:53.854Z,2.40
2022-09-01T03:54:24.830Z,2.53
2022-09-01T03:56:51.925Z,2.20
2022-09-01T03:59:19.469Z,2.10
2022-09-01T04:01:47.608Z,1.80
2022-09-01T04:04:15.331Z,2.83
2022-09-01T04:06:47.142Z,2.50
2022-09-01T04:09:14.886Z,2.42
2022-09-01T04:11:46.248Z,2.40
2022-09-01T04:14:15.969Z,4.30
2022-09-01T04:17:03.068Z,2.50
2022-09-01T04:19:36.656Z,2.88
2022-09-01T04:22:04.999Z,2.80
2022-09-01T04:27:18.222Z,2.95
2022-09-01T04:29:46.859Z,2.15
2022-09-01T04:32:13.596Z,2.25
2022-09-01T04:34:47.921Z,2.30
2022-09-01T04:37:21.704Z,2.80
2022-09-01T04:39:57.834Z,2.72
2022-09-01T04:42:29.784Z,2.70
2022-09-01T04:45:02.035Z,2.70
2022-09-01T04:47:41.819Z,2.47
2022-09-01T04:50:14.970Z,2.40
2022-09-01T04:53:05.923Z,2.30
2022-09-01T04:58:13.727Z,2.33
2022-09-01T05:00:40.972Z,2.60
2022-09-01T05:03:09.216Z,3.90
2022-09-01T05:05:54.559Z,3.30
2022-09-01T05:08:24.345Z,2.30
2022-09-01T05:10:56.699Z,2.28
2022-09-01T05:13:39.680Z,2.47
2022-09-01T05:16:15.749Z,3.13
2022-09-01T05:18:47.711Z,2.90
2022-09-01T05:21:22.480Z,2.47
2022-09-01T05:23:51.643Z,2.65
2022-09-01T05:26:27.669Z,2.38
2022-09-01T05:28:59.560Z,2.85
2022-09-01T05:31:34.711Z,2.60
2022-09-01T05:34:02.133Z,2.30
2022-09-01T05:36:31.814Z,3.00
2022-09-01T05:38:59.035Z,2.10
2022-09-01T05:41:26.676Z,2.22
2022-09-01T05:43:59.464Z,2.33
2022-09-01T05:46:28.191Z,2.30
2022-09-01T05:48:57.227Z,2.33
2022-09-01T05:51:43.848Z,2.10
2022-09-01T05:54:12.559Z,1.98
2022-09-01T05:56:43.996Z,2.30
2022-09-01T05:59:24.439Z,1.73
2022-09-01T06:01:56.032Z,2.25
2022-09-01T06:04:28.009Z,2.05
2022-09-01T06:07:05.890Z,1.80
2022-09-01T06:09:41.448Z,1.70
2022-09-01T06:12:17.167Z,2.03
2022-09-01T06:14:46.862Z,1.73
2022-09-01T06:17:16.484Z,2.08
2022-09-01T06:19:44.429Z,1.67
2022-09-01T06:22:11.467Z,1.90
2022-09-01T06:24:40.685Z,1.98
2022-09-01T06:27:10.647Z,1.40
2022-09-01T06:29:41.641Z,1.70
2022-09-01T06:32:13.093Z,1.77
2022-09-01T06:34:42.503Z,2.00
2022-09-01T06:37:10.893Z,1.42
2022-09-01T06:39:38.328Z,1.40
2022-09-01T06:42:06.678Z,1.60
2022-09-01T06:44:46.032Z,1.50
2022-09-01T06:47:15.351Z,2.00
2022-09-01T06:49:42.073Z,1.50
2022-09-01T06:52:16.146Z,1.67
2022-09-01T06:54:44.035Z,2.00
2022-09-01T06:59:58.447Z,1.85
2022-09-01T07:02:27.169Z,1.80
2022-09-01T07:08:21.940Z,1.70
2022-09-01T07:14:22.053Z,1.30
2022-09-01T07:19:53.057Z,1.00
2022-09-01T07:25:12.756Z,1.60
2022-09-01T07:30:24.156Z,1.23
2022-09-01T07:32:52.932Z,1.20
2022-09-01T07:35:22.505Z,1.23
2022-09-01T07:42:30.322Z,1.30
2022-09-01T07:42:31.249Z,1.50
2022-09-01T07:42:32.053Z,1.37
2022-09-01T07:43:44.792Z,0.93
2022-09-01T07:46:36.716Z,1.00
2022-09-01T07:51:55.489Z,1.10
2022-09-01T07:54:25.174Z,1.30
2022-09-01T07:56:55.434Z,1.40
2022-09-01T07:59:23.528Z,1.50
2022-09-01T08:01:57.260Z,1.23
2022-09-01T08:04:24.517Z,1.30
2022-09-01T08:06:51.367Z,1.05
2022-09-01T08:09:28.865Z,1.13
2022-09-01T08:12:07.439Z,1.30
2022-09-01T08:14:39.336Z,1.17
2022-09-01T08:19:56.375Z,1.05
2022-09-01T08:22:43.061Z,2.15
2022-09-01T08:25:22.922Z,1.17
2022-09-01T08:27:59.768Z,0.98
2022-09-01T08:30:27.778Z,0.55
2022-09-01T08:32:54.679Z,1.27
2022-09-01T08:35:22.535Z,0.90
2022-09-01T08:37:49.232Z,1.30
2022-09-01T08:40:22.964Z,0.93
2022-09-01T08:43:13.156Z,0.82
2022-09-01T08:45:54.858Z,1.02
2022-09-01T08:52:30.523Z,1.38
2022-09-01T08:55:27.395Z,1.00
2022-09-01T08:57:59.854Z,1.10
2022-09-01T09:00:36.930Z,0.68
2022-09-01T09:03:46.665Z,0.70
2022-09-01T09:07:05.583Z,0.60
2022-09-01T09:09:53.710Z,0.70
2022-09-01T09:12:51.315Z,0.82
2022-09-01T09:15:44.611Z,0.55
2022-09-01T09:18:40.635Z,0.50
2022-09-01T09:21:30.054Z,0.50
2022-09-01T09:24:26.114Z,0.90
2022-09-01T09:26:58.732Z,0.77
2022-09-01T09:29:27.211Z,0.75
2022-09-01T09:32:39.557Z,0.60
2022-09-01T09:34:56.104Z,0.50
2022-09-01T09:37:31.590Z,0.65
2022-09-01T09:40:17.291Z,0.55
2022-09-01T09:42:56.926Z,0.60
2022-09-01T09:45:44.976Z,0.52
2022-09-01T09:48:31.493Z,0.50
2022-09-01T09:51:21.277Z,0.57
2022-09-01T09:53:49.431Z,0.80
2022-09-01T09:56:24.202Z,0.80
2022-09-01T09:58:52.917Z,0.77
2022-09-01T10:01:24.346Z,0.45
2022-09-01T10:03:59.204Z,0.60
2022-09-01T10:06:41.013Z,0.60
2022-09-01T10:09:22.199Z,0.60
2022-09-01T10:11:57.272Z,0.47
2022-09-01T10:17:28.067Z,0.53
2022-09-01T10:20:07.423Z,0.73
2022-09-01T10:22:37.059Z,0.70
2022-09-01T10:25:10.445Z,0.82
2022-09-01T10:27:42.391Z,0.63
2022-09-01T10:30:20.683Z,0.43
2022-09-01T10:32:56.101Z,0.57
2022-09-01T10:35:34.416Z,0.50
2022-09-01T10:38:08.320Z,0.60
2022-09-01T10:40:49.177Z,0.50
2022-09-01T10:43:38.403Z,0.68
2022-09-01T10:46:38.752Z,0.63
2022-09-01T10:49:47.990Z,0.45
2022-09-01T10:52:44.145Z,0.55
2022-09-01T10:55:24.997Z,0.40
2022-09-01T11:01:48.378Z,0.50
2022-09-01T11:04:32.433Z,0.60
2022-09-01T11:07:38.901Z,0.70
2022-09-01T11:10:35.391Z,0.77
2022-09-01T11:13:52.143Z,0.70
2022-09-01T11:20:30.733Z,0.60
2022-09-01T11:22:57.287Z,0.52
2022-09-01T11:26:19.081Z,0.60
2022-09-01T11:28:40.183Z,0.47
2022-09-01T11:31:08.842Z,0.80
2022-09-01T11:34:13.670Z,0.60
2022-09-01T11:36:45.817Z,0.30
2022-09-01T11:39:19.286Z,0.52
2022-09-01T11:42:04.439Z,0.60
2022-09-01T11:45:05.229Z,0.50
2022-09-01T11:47:49.687Z,0.50
2022-09-01T11:50:16.341Z,0.70
2022-09-01T11:52:52.127Z,0.57
2022-09-01T11:55:34.247Z,0.68
2022-09-01T11:58:01.239Z,0.63
2022-09-01T12:00:40.279Z,0.80
2022-09-01T12:03:26.646Z,0.60
2022-09-01T12:06:01.814Z,0.82
2022-09-01T12:08:42.639Z,0.80
2022-09-01T12:11:21.546Z,0.65
2022-09-01T12:14:11.376Z,0.68
2022-09-01T12:16:42.209Z,0.60
2022-09-01T12:19:23.374Z,0.73
2022-09-01T12:22:15.586Z,0.82
2022-09-01T12:24:47.737Z,1.20
2022-09-01T12:27:15.172Z,1.10
2022-09-01T12:29:42.331Z,0.73
2022-09-01T12:32:09.417Z,0.95
2022-09-01T12:34:38.379Z,0.90
2022-09-01T12:37:24.411Z,0.80
2022-09-01T12:39:57.226Z,0.77
2022-09-01T12:42:40.617Z,0.80
2022-09-01T12:45:10.819Z,0.60
2022-09-01T12:47:37.630Z,0.80
2022-09-01T12:50:29.579Z,1.23
2022-09-01T12:52:59.968Z,1.13
2022-09-01T12:55:48.995Z,0.70
2022-09-01T12:58:25.612Z,0.80
2022-09-01T13:01:16.226Z,0.70
2022-09-01T13:04:03.527Z,0.57
2022-09-01T13:06:30.249Z,1.00
2022-09-01T13:08:56.938Z,0.73
2022-09-01T13:11:23.719Z,0.80
2022-09-01T13:13:50.424Z,0.70
2022-09-01T13:16:17.131Z,1.02
2022-09-01T13:21:32.811Z,0.70
2022-09-01T13:23:59.738Z,1.00
2022-09-01T13:26:26.790Z,0.73
2022-09-01T13:28:53.862Z,0.73
2022-09-01T13:31:36.866Z,0.88
2022-09-01T13:34:22.225Z,0.80
2022-09-01T13:36:52.542Z,1.25
2022-09-01T13:39:20.944Z,0.80
2022-09-01T13:41:49.247Z,0.80
2022-09-01T13:44:18.441Z,0.77
2022-09-01T13:47:28.760Z,0.82
2022-09-01T13:52:21.560Z,0.98
2022-09-01T13:54:48.218Z,0.80
2022-09-01T13:57:16.358Z,0.77
2022-09-01T13:59:43.449Z,1.13
2022-09-01T14:02:11.056Z,1.45
2022-09-01T14:04:38.325Z,1.10
2022-09-01T14:07:05.419Z,1.10
2022-09-01T14:09:32.236Z,1.00
2022-09-01T14:11:59.425Z,1.00
2022-09-01T14:14:26.471Z,1.05
2022-09-01T14:16:53.990Z,0.93
2022-09-01T14:19:20.981Z,0.85
2022-09-01T14:21:47.726Z,1.02
2022-09-01T14:24:14.944Z,1.10
2022-09-01T14:26:41.988Z,0.95
2022-09-01T14:29:09.354Z,0.93
2022-09-01T14:31:37.672Z,1.17
2022-09-01T14:34:06.646Z,1.00
2022-09-01T14:36:33.443Z,1.00
2022-09-01T14:39:00.594Z,0.90
2022-09-01T14:41:27.384Z,1.20
2022-09-01T14:44:02.770Z,1.05
2022-09-01T14:46:33.741Z,0.85
2022-09-01T14:49:02.357Z,0.90
2022-09-01T14:54:17.773Z,1.00
2022-09-01T14:57:28.041Z,1.00
2022-09-01T14:59:31.845Z,0.95
2022-09-01T15:01:59.091Z,1.17
2022-09-01T15:04:26.354Z,1.40
2022-09-01T15:06:53.341Z,1.38
2022-09-01T15:09:20.625Z,1.35
2022-09-01T15:11:47.434Z,1.45
2022-09-01T15:14:14.315Z,1.00
2022-09-01T15:16:41.462Z,1.20
2022-09-01T15:19:11.543Z,1.00
2022-09-01T15:21:41.769Z,1.20
2022-09-01T15:24:09.141Z,0.95
2022-09-01T15:26:38.131Z,1.00
2022-09-01T15:29:05.420Z,1.10
2022-09-01T15:31:33.727Z,0.98
2022-09-01T15:34:04.515Z,1.10
2022-09-01T15:36:34.334Z,1.20
2022-09-01T15:39:00.990Z,0.93
2022-09-01T15:41:31.704Z,1.15
2022-09-01T15:43:59.055Z,1.25
2022-09-01T15:46:33.592Z,1.10
2022-09-01T15:49:02.618Z,1.50
2022-09-01T15:51:47.648Z,1.40
2022-09-01T15:54:20.048Z,1.55
2022-09-01T15:56:47.884Z,1.77
2022-09-01T15:59:15.470Z,1.48
2022-09-01T16:01:45.896Z,1.42
2022-09-01T16:04:19.885Z,1.63
2022-09-01T16:06:49.430Z,1.80
2022-09-01T16:09:18.313Z,1.40
2022-09-01T16:11:45.111Z,1.73
2022-09-01T16:14:11.994Z,1.52
2022-09-01T16:16:51.821Z,1.50
2022-09-01T16:19:31.944Z,1.65
2022-09-01T16:22:16.761Z,1.48
2022-09-01T16:24:50.447Z,1.57
2022-09-01T16:27:22.141Z,1.58
2022-09-01T16:29:56.393Z,1.45
2022-09-01T16:32:23.644Z,1.30
2022-09-01T16:34:53.324Z,1.38
2022-09-01T16:37:55.353Z,1.40
2022-09-01T16:40:56.314Z,1.20
2022-09-01T16:43:38.524Z,1.15
2022-09-01T16:46:23.268Z,1.20
2022-09-01T16:49:20.735Z,1.33
2022-09-01T16:52:14.447Z,1.38
2022-09-01T16:55:12.660Z,1.20
2022-09-01T16:58:09.524Z,1.77
2022-09-01T17:00:52.338Z,1.13
2022-09-01T17:03:43.203Z,1.63
2022-09-01T17:06:25.614Z,1.23
2022-09-01T17:09:05.769Z,1.60
2022-09-01T17:11:51.849Z,1.45
2022-09-01T17:14:42.373Z,1.13
2022-09-01T17:17:14.026Z,1.15
2022-09-01T17:19:41.346Z,1.15
2022-09-01T17:22:12.406Z,1.15
2022-09-01T17:24:50.508Z,1.17
2022-09-01T17:27:24.882Z,1.35
2022-09-01T17:29:54.956Z,1.30
2022-09-01T17:32:51.939Z,1.40
2022-09-01T17:35:58.500Z,0.98
2022-09-01T17:38:57.507Z,1.10
2022-09-01T17:41:35.453Z,1.45
2022-09-01T17:44:30.728Z,1.27
2022-09-01T17:47:17.648Z,1.37
2022-09-01T17:50:35.648Z,2.00
2022-09-01T17:53:29.853Z,1.10
2022-09-01T17:56:03.647Z,0.90
2022-09-01T17:58:59.883Z,0.93
2022-09-01T18:04:42.181Z,1.40
2022-09-01T18:07:48.904Z,0.90
2022-09-01T18:13:03.549Z,1.10
2022-09-01T18:15:52.048Z,1.00
2022-09-01T18:18:40.506Z,1.08
2022-09-01T18:21:38.134Z,0.90
2022-09-01T18:24:57.715Z,1.08
2022-09-01T18:27:27.708Z,1.10
2022-09-01T18:29:56.820Z,1.10
2022-09-01T18:32:41.657Z,0.95
2022-09-01T18:35:38.836Z,1.10
2022-09-01T18:38:57.412Z,1.00
2022-09-01T18:42:04.180Z,1.15
2022-09-01T18:44:53.417Z,0.90
2022-09-01T18:48:00.068Z,1.00
2022-09-01T18:53:32.127Z,1.05
2022-09-01T18:56:42.527Z,1.55
2022-09-01T18:59:48.879Z,1.50
2022-09-01T19:02:54.026Z,1.42
2022-09-01T19:06:10.894Z,1.70
2022-09-01T19:08:56.654Z,0.85
2022-09-01T19:11:48.060Z,1.30
2022-09-01T19:14:21.995Z,1.23
2022-09-01T19:16:59.857Z,1.20
2022-09-01T19:19:38.743Z,1.10
2022-09-01T19:22:06.140Z,0.90
2022-09-01T19:24:38.148Z,1.38
2022-09-01T19:27:21.557Z,0.93
2022-09-01T19:30:04.036Z,0.95
2022-09-01T19:32:34.943Z,1.30
2022-09-01T19:35:16.847Z,1.10
2022-09-01T19:37:47.839Z,1.20
2022-09-01T19:40:18.289Z,0.90
2022-09-01T19:43:03.771Z,1.25
2022-09-01T19:46:17.193Z,1.48
2022-09-01T19:48:46.720Z,1.40
2022-09-01T19:51:32.128Z,1.15
2022-09-01T19:54:17.730Z,1.10
2022-09-01T19:59:41.637Z,1.10
2022-09-01T20:02:35.458Z,1.33
2022-09-01T20:05:27.026Z,1.42
2022-09-01T20:08:27.015Z,1.25
2022-09-01T20:10:56.922Z,1.25
2022-09-01T20:13:46.275Z,0.98
2022-09-01T20:16:41.662Z,0.98
2022-09-01T20:19:41.581Z,1.45
2022-09-01T20:23:02.414Z,1.65
2022-09-01T20:25:48.489Z,1.35
2022-09-01T20:31:24.911Z,1.55
2022-09-01T20:34:39.185Z,1.48
2022-09-01T20:37:49.398Z,1.67
2022-09-01T20:40:32.553Z,1.40
2022-09-01T20:43:12.503Z,1.20
2022-09-01T20:45:39.518Z,1.30
2022-09-01T20:48:22.914Z,1.52
2022-09-01T20:51:02.677Z,1.52
2022-09-01T20:54:16.983Z,1.50
2022-09-01T20:56:46.780Z,1.70
2022-09-01T20:59:45.530Z,1.40
2022-09-01T21:03:04.239Z,1.58
2022-09-01T21:05:51.900Z,1.63
2022-09-01T21:08:21.461Z,1.20
2022-09-01T21:11:16.629Z,1.00
2022-09-01T21:14:06.811Z,1.70
2022-09-01T21:17:01.330Z,1.50
2022-09-01T21:19:39.699Z,2.03
2022-09-01T21:22:19.692Z,1.48
2022-09-01T21:24:48.822Z,1.30
2022-09-01T21:27:51.236Z,1.70
2022-09-01T21:30:18.897Z,1.40
2022-09-01T21:32:46.530Z,1.42
2022-09-01T21:35:18.175Z,1.33
2022-09-01T21:37:45.109Z,1.42
2022-09-01T21:40:13.911Z,1.25
2022-09-01T21:42:54.364Z,1.58
2022-09-01T21:45:22.192Z,1.40
2022-09-01T21:47:50.030Z,1.00
2022-09-01T21:50:20.885Z,2.03
2022-09-01T21:52:48.264Z,1.40
2022-09-01T21:55:19.544Z,1.30
2022-09-01T21:57:49.524Z,1.38
2022-09-01T22:00:29.302Z,1.40
2022-09-01T22:02:59.297Z,1.40
2022-09-01T22:05:26.729Z,1.70
2022-09-01T22:07:55.851Z,1.52
2022-09-01T22:10:26.301Z,1.48
2022-09-01T22:12:54.434Z,1.50
2022-09-01T22:15:24.419Z,1.95
2022-09-01T22:17:53.280Z,1.20
2022-09-01T22:20:22.680Z,1.27
2022-09-01T22:22:50.494Z,1.33
2022-09-01T22:25:23.678Z,1.40
2022-09-01T22:27:50.561Z,1.10
2022-09-01T22:30:18.536Z,1.30
2022-09-01T22:32:45.836Z,1.20
2022-09-01T22:35:15.484Z,1.15
2022-09-01T22:37:42.938Z,1.50
2022-09-01T22:40:11.461Z,1.60
2022-09-01T22:42:38.660Z,1.20
2022-09-01T22:45:08.344Z,1.10
2022-09-01T22:47:37.373Z,1.48
2022-09-01T22:50:08.007Z,1.20
2022-09-01T22:52:35.916Z,0.82
2022-09-01T22:55:03.888Z,1.10
2022-09-01T22:57:31.194Z,0.98
2022-09-01T22:59:57.919Z,0.90
2022-09-01T23:02:24.665Z,1.80
2022-09-01T23:04:52.162Z,1.10
2022-09-01T23:07:18.876Z,0.95
2022-09-01T23:09:45.736Z,1.00
2022-09-01T23:12:14.722Z,1.33
2022-09-01T23:14:41.554Z,1.38
2022-09-01T23:17:08.677Z,1.00
2022-09-01T23:19:35.489Z,0.90
2022-09-01T23:22:03.119Z,1.02
2022-09-01T23:24:30.191Z,1.10
2022-09-01T23:26:57.026Z,1.10
2022-09-01T23:29:25.221Z,1.02
2022-09-01T23:31:52.176Z,1.17
2022-09-01T23:34:18.955Z,0.98
2022-09-01T23:36:45.679Z,1.27
2022-09-01T23:39:12.711Z,0.88
2022-09-01T23:41:39.605Z,1.17
2022-09-01T23:44:09.532Z,1.10
2022-09-01T23:46:41.604Z,1.10
2022-09-01T23:49:09.305Z,1.10
2022-09-01T23:51:36.183Z,1.10
2022-09-01T23:54:03.218Z,1.23
2022-09-01T23:56:30.148Z,1.20
2022-09-01T23:58:58.642Z,1.05
